sensor_id;sensor_type;location;lat;lon;timestamp;P1;durP1;ratioP1;P2;durP2;ratioP2
59786;SDS011;45672;51.612;5.536;2024-02-21T00:00:19;20.02;;;9.90;;
59786;SDS011;45672;51.612;5.536;2024-02-21T00:02:44;24.15;;;10.43;;
59786;SDS011;45672;51.612;5.536;2024-02-21T00:05:10;25.15;;;10.30;;
59786;SDS011;45672;51.612;5.536;2024-02-21T00:07:36;20.85;;;10.63;;
59786;SDS011;45672;51.612;5.536;2024-02-21T00:10:01;25.00;;;10.07;;
59786;SDS011;45672;51.612;5.536;2024-02-21T00:12:26;25.70;;;11.32;;
59786;SDS011;45672;51.612;5.536;2024-02-21T00:14:52;21.80;;;10.38;;
59786;SDS011;45672;51.612;5.536;2024-02-21T00:17:17;26.73;;;10.75;;
59786;SDS011;45672;51.612;5.536;2024-02-21T00:19:42;34.22;;;11.23;;
59786;SDS011;45672;51.612;5.536;2024-02-21T00:22:08;22.77;;;10.10;;
59786;SDS011;45672;51.612;5.536;2024-02-21T00:24:33;24.17;;;10.95;;
59786;SDS011;45672;51.612;5.536;2024-02-21T00:26:58;22.98;;;9.52;;
59786;SDS011;45672;51.612;5.536;2024-02-21T00:29:24;23.88;;;10.05;;
59786;SDS011;45672;51.612;5.536;2024-02-21T00:31:49;27.88;;;10.88;;
59786;SDS011;45672;51.612;5.536;2024-02-21T00:34:15;23.50;;;9.98;;
59786;SDS011;45672;51.612;5.536;2024-02-21T00:36:41;20.35;;;9.68;;
59786;SDS011;45672;51.612;5.536;2024-02-21T00:39:06;17.35;;;9.32;;
59786;SDS011;45672;51.612;5.536;2024-02-21T00:41:32;27.85;;;10.77;;
59786;SDS011;45672;51.612;5.536;2024-02-21T00:43:58;25.05;;;9.38;;
59786;SDS011;45672;51.612;5.536;2024-02-21T00:46:23;26.50;;;10.38;;
59786;SDS011;45672;51.612;5.536;2024-02-21T00:48:48;24.25;;;10.73;;
59786;SDS011;45672;51.612;5.536;2024-02-21T00:51:15;20.45;;;9.57;;
59786;SDS011;45672;51.612;5.536;2024-02-21T00:53:41;20.80;;;10.07;;
59786;SDS011;45672;51.612;5.536;2024-02-21T00:56:07;27.35;;;10.85;;
59786;SDS011;45672;51.612;5.536;2024-02-21T00:58:32;15.88;;;8.38;;
59786;SDS011;45672;51.612;5.536;2024-02-21T01:00:58;22.60;;;9.27;;
59786;SDS011;45672;51.612;5.536;2024-02-21T01:03:23;17.95;;;10.05;;
59786;SDS011;45672;51.612;5.536;2024-02-21T01:05:48;26.58;;;9.75;;
59786;SDS011;45672;51.612;5.536;2024-02-21T01:08:14;25.65;;;8.82;;
59786;SDS011;45672;51.612;5.536;2024-02-21T01:10:39;20.20;;;10.15;;
59786;SDS011;45672;51.612;5.536;2024-02-21T01:13:04;24.27;;;10.45;;
59786;SDS011;45672;51.612;5.536;2024-02-21T01:15:30;18.90;;;8.95;;
59786;SDS011;45672;51.612;5.536;2024-02-21T01:17:56;28.08;;;10.05;;
59786;SDS011;45672;51.612;5.536;2024-02-21T01:20:21;24.88;;;9.75;;
59786;SDS011;45672;51.612;5.536;2024-02-21T01:22:46;22.20;;;9.82;;
59786;SDS011;45672;51.612;5.536;2024-02-21T01:25:12;19.15;;;8.85;;
59786;SDS011;45672;51.612;5.536;2024-02-21T01:27:37;17.90;;;8.40;;
59786;SDS011;45672;51.612;5.536;2024-02-21T01:30:03;23.27;;;8.48;;
59786;SDS011;45672;51.612;5.536;2024-02-21T01:32:28;20.58;;;8.93;;
59786;SDS011;45672;51.612;5.536;2024-02-21T01:34:54;20.90;;;8.68;;
59786;SDS011;45672;51.612;5.536;2024-02-21T01:37:19;23.88;;;8.45;;
59786;SDS011;45672;51.612;5.536;2024-02-21T01:39:44;22.50;;;8.90;;
59786;SDS011;45672;51.612;5.536;2024-02-21T01:42:10;18.98;;;8.52;;
59786;SDS011;45672;51.612;5.536;2024-02-21T01:44:35;17.20;;;7.85;;
59786;SDS011;45672;51.612;5.536;2024-02-21T01:47:03;18.00;;;7.70;;
59786;SDS011;45672;51.612;5.536;2024-02-21T01:49:28;20.52;;;9.07;;
59786;SDS011;45672;51.612;5.536;2024-02-21T01:51:54;17.88;;;9.02;;
59786;SDS011;45672;51.612;5.536;2024-02-21T01:54:20;17.25;;;7.95;;
59786;SDS011;45672;51.612;5.536;2024-02-21T01:56:46;18.52;;;7.85;;
59786;SDS011;45672;51.612;5.536;2024-02-21T01:59:12;24.50;;;8.80;;
59786;SDS011;45672;51.612;5.536;2024-02-21T02:01:38;20.42;;;8.10;;
59786;SDS011;45672;51.612;5.536;2024-02-21T02:04:04;15.60;;;7.22;;
59786;SDS011;45672;51.612;5.536;2024-02-21T02:06:31;14.85;;;7.30;;
59786;SDS011;45672;51.612;5.536;2024-02-21T02:08:56;16.30;;;7.72;;
59786;SDS011;45672;51.612;5.536;2024-02-21T02:11:22;16.13;;;8.57;;
59786;SDS011;45672;51.612;5.536;2024-02-21T02:13:48;18.70;;;7.50;;
59786;SDS011;45672;51.612;5.536;2024-02-21T02:16:13;18.92;;;7.30;;
59786;SDS011;45672;51.612;5.536;2024-02-21T02:18:38;15.15;;;6.75;;
59786;SDS011;45672;51.612;5.536;2024-02-21T02:21:09;17.15;;;7.50;;
59786;SDS011;45672;51.612;5.536;2024-02-21T02:23:39;17.65;;;7.22;;
59786;SDS011;45672;51.612;5.536;2024-02-21T02:26:05;20.00;;;7.00;;
59786;SDS011;45672;51.612;5.536;2024-02-21T02:28:32;16.92;;;7.55;;
59786;SDS011;45672;51.612;5.536;2024-02-21T02:30:57;13.70;;;6.82;;
59786;SDS011;45672;51.612;5.536;2024-02-21T02:33:23;13.88;;;6.40;;
59786;SDS011;45672;51.612;5.536;2024-02-21T02:35:48;15.32;;;6.78;;
59786;SDS011;45672;51.612;5.536;2024-02-21T02:38:14;14.60;;;7.07;;
59786;SDS011;45672;51.612;5.536;2024-02-21T02:40:40;10.77;;;6.72;;
59786;SDS011;45672;51.612;5.536;2024-02-21T02:43:06;14.45;;;6.90;;
59786;SDS011;45672;51.612;5.536;2024-02-21T02:45:31;13.23;;;6.35;;
59786;SDS011;45672;51.612;5.536;2024-02-21T02:47:57;14.07;;;6.38;;
59786;SDS011;45672;51.612;5.536;2024-02-21T02:50:25;16.13;;;6.50;;
59786;SDS011;45672;51.612;5.536;2024-02-21T02:52:51;13.32;;;5.93;;
59786;SDS011;45672;51.612;5.536;2024-02-21T02:55:17;14.35;;;6.30;;
59786;SDS011;45672;51.612;5.536;2024-02-21T02:57:42;15.07;;;6.63;;
59786;SDS011;45672;51.612;5.536;2024-02-21T03:00:08;16.77;;;6.32;;
59786;SDS011;45672;51.612;5.536;2024-02-21T03:02:36;15.70;;;7.00;;
59786;SDS011;45672;51.612;5.536;2024-02-21T03:05:02;16.17;;;6.72;;
59786;SDS011;45672;51.612;5.536;2024-02-21T03:07:37;16.10;;;6.38;;
59786;SDS011;45672;51.612;5.536;2024-02-21T03:10:03;14.88;;;6.72;;
59786;SDS011;45672;51.612;5.536;2024-02-21T03:12:28;14.05;;;6.22;;
59786;SDS011;45672;51.612;5.536;2024-02-21T03:14:54;14.77;;;6.55;;
59786;SDS011;45672;51.612;5.536;2024-02-21T03:17:19;14.23;;;6.57;;
59786;SDS011;45672;51.612;5.536;2024-02-21T03:19:45;15.10;;;6.10;;
59786;SDS011;45672;51.612;5.536;2024-02-21T03:22:10;11.10;;;6.28;;
59786;SDS011;45672;51.612;5.536;2024-02-21T03:24:35;13.13;;;6.28;;
59786;SDS011;45672;51.612;5.536;2024-02-21T03:27:01;9.57;;;6.07;;
59786;SDS011;45672;51.612;5.536;2024-02-21T03:29:26;11.93;;;6.18;;
59786;SDS011;45672;51.612;5.536;2024-02-21T03:31:51;12.73;;;5.90;;
59786;SDS011;45672;51.612;5.536;2024-02-21T03:34:17;13.27;;;6.13;;
59786;SDS011;45672;51.612;5.536;2024-02-21T03:36:42;12.57;;;6.68;;
59786;SDS011;45672;51.612;5.536;2024-02-21T03:39:07;22.05;;;6.00;;
59786;SDS011;45672;51.612;5.536;2024-02-21T03:41:34;12.15;;;5.88;;
59786;SDS011;45672;51.612;5.536;2024-02-21T03:43:59;11.40;;;5.45;;
59786;SDS011;45672;51.612;5.536;2024-02-21T03:46:25;12.38;;;6.25;;
59786;SDS011;45672;51.612;5.536;2024-02-21T03:48:50;14.30;;;6.30;;
59786;SDS011;45672;51.612;5.536;2024-02-21T03:51:16;14.88;;;6.28;;
59786;SDS011;45672;51.612;5.536;2024-02-21T03:53:41;10.27;;;5.40;;
59786;SDS011;45672;51.612;5.536;2024-02-21T03:56:07;11.77;;;5.50;;
59786;SDS011;45672;51.612;5.536;2024-02-21T03:58:32;13.40;;;5.88;;
59786;SDS011;45672;51.612;5.536;2024-02-21T04:00:59;8.85;;;5.22;;
59786;SDS011;45672;51.612;5.536;2024-02-21T04:03:25;11.57;;;6.05;;
59786;SDS011;45672;51.612;5.536;2024-02-21T04:05:50;17.08;;;6.40;;
59786;SDS011;45672;51.612;5.536;2024-02-21T04:08:16;11.48;;;6.07;;
59786;SDS011;45672;51.612;5.536;2024-02-21T04:10:41;14.73;;;6.43;;
59786;SDS011;45672;51.612;5.536;2024-02-21T04:13:06;13.82;;;6.50;;
59786;SDS011;45672;51.612;5.536;2024-02-21T04:15:32;13.45;;;6.30;;
59786;SDS011;45672;51.612;5.536;2024-02-21T04:17:57;13.65;;;7.40;;
59786;SDS011;45672;51.612;5.536;2024-02-21T04:20:23;15.93;;;6.93;;
59786;SDS011;45672;51.612;5.536;2024-02-21T04:22:48;14.13;;;6.55;;
59786;SDS011;45672;51.612;5.536;2024-02-21T04:25:13;11.57;;;6.55;;
59786;SDS011;45672;51.612;5.536;2024-02-21T04:27:39;12.13;;;6.47;;
59786;SDS011;45672;51.612;5.536;2024-02-21T04:30:05;15.27;;;7.05;;
59786;SDS011;45672;51.612;5.536;2024-02-21T04:32:31;12.93;;;6.80;;
59786;SDS011;45672;51.612;5.536;2024-02-21T04:34:57;12.65;;;6.80;;
59786;SDS011;45672;51.612;5.536;2024-02-21T04:37:22;14.30;;;6.75;;
59786;SDS011;45672;51.612;5.536;2024-02-21T04:39:48;17.80;;;7.82;;
59786;SDS011;45672;51.612;5.536;2024-02-21T04:42:14;12.93;;;6.70;;
59786;SDS011;45672;51.612;5.536;2024-02-21T04:44:40;12.35;;;7.38;;
59786;SDS011;45672;51.612;5.536;2024-02-21T04:47:05;12.77;;;7.20;;
59786;SDS011;45672;51.612;5.536;2024-02-21T04:49:32;11.35;;;6.25;;
59786;SDS011;45672;51.612;5.536;2024-02-21T04:51:57;12.48;;;6.47;;
59786;SDS011;45672;51.612;5.536;2024-02-21T04:54:23;10.23;;;6.75;;
59786;SDS011;45672;51.612;5.536;2024-02-21T04:56:48;11.77;;;6.35;;
59786;SDS011;45672;51.612;5.536;2024-02-21T04:59:13;12.77;;;6.60;;
59786;SDS011;45672;51.612;5.536;2024-02-21T05:01:39;12.40;;;6.50;;
59786;SDS011;45672;51.612;5.536;2024-02-21T05:04:04;11.50;;;6.30;;
59786;SDS011;45672;51.612;5.536;2024-02-21T05:06:29;15.80;;;7.05;;
59786;SDS011;45672;51.612;5.536;2024-02-21T05:08:55;16.33;;;7.53;;
59786;SDS011;45672;51.612;5.536;2024-02-21T05:11:20;11.20;;;6.35;;
59786;SDS011;45672;51.612;5.536;2024-02-21T05:13:46;13.88;;;8.15;;
59786;SDS011;45672;51.612;5.536;2024-02-21T05:16:12;16.70;;;7.78;;
59786;SDS011;45672;51.612;5.536;2024-02-21T05:18:37;17.35;;;8.07;;
59786;SDS011;45672;51.612;5.536;2024-02-21T05:21:03;12.55;;;7.68;;
59786;SDS011;45672;51.612;5.536;2024-02-21T05:23:28;15.27;;;7.15;;
59786;SDS011;45672;51.612;5.536;2024-02-21T05:25:53;24.60;;;8.27;;
59786;SDS011;45672;51.612;5.536;2024-02-21T05:28:19;18.50;;;8.57;;
59786;SDS011;45672;51.612;5.536;2024-02-21T05:30:44;16.92;;;8.60;;
59786;SDS011;45672;51.612;5.536;2024-02-21T05:33:09;15.55;;;8.30;;
59786;SDS011;45672;51.612;5.536;2024-02-21T05:35:35;23.33;;;9.00;;
59786;SDS011;45672;51.612;5.536;2024-02-21T05:38:01;12.45;;;7.38;;
59786;SDS011;45672;51.612;5.536;2024-02-21T05:40:29;24.35;;;8.90;;
59786;SDS011;45672;51.612;5.536;2024-02-21T05:42:54;17.38;;;8.82;;
59786;SDS011;45672;51.612;5.536;2024-02-21T05:45:19;18.85;;;8.45;;
59786;SDS011;45672;51.612;5.536;2024-02-21T05:47:45;18.00;;;8.75;;
59786;SDS011;45672;51.612;5.536;2024-02-21T05:50:10;18.13;;;8.13;;
59786;SDS011;45672;51.612;5.536;2024-02-21T05:52:36;16.70;;;8.48;;
59786;SDS011;45672;51.612;5.536;2024-02-21T05:55:01;15.95;;;8.48;;
59786;SDS011;45672;51.612;5.536;2024-02-21T05:57:26;18.92;;;8.20;;
59786;SDS011;45672;51.612;5.536;2024-02-21T05:59:52;19.45;;;8.05;;
59786;SDS011;45672;51.612;5.536;2024-02-21T06:02:17;14.73;;;7.82;;
59786;SDS011;45672;51.612;5.536;2024-02-21T06:04:42;14.30;;;8.10;;
59786;SDS011;45672;51.612;5.536;2024-02-21T06:07:09;17.70;;;9.18;;
59786;SDS011;45672;51.612;5.536;2024-02-21T06:09:34;19.80;;;8.50;;
59786;SDS011;45672;51.612;5.536;2024-02-21T06:12:00;13.70;;;7.22;;
59786;SDS011;45672;51.612;5.536;2024-02-21T06:14:25;12.93;;;7.55;;
59786;SDS011;45672;51.612;5.536;2024-02-21T06:16:51;14.45;;;7.57;;
59786;SDS011;45672;51.612;5.536;2024-02-21T06:19:16;24.02;;;8.65;;
59786;SDS011;45672;51.612;5.536;2024-02-21T06:21:41;12.02;;;7.25;;
59786;SDS011;45672;51.612;5.536;2024-02-21T06:24:07;16.48;;;7.50;;
59786;SDS011;45672;51.612;5.536;2024-02-21T06:26:32;15.40;;;7.35;;
59786;SDS011;45672;51.612;5.536;2024-02-21T06:28:57;15.98;;;6.97;;
59786;SDS011;45672;51.612;5.536;2024-02-21T06:31:24;13.13;;;7.30;;
59786;SDS011;45672;51.612;5.536;2024-02-21T06:33:50;17.38;;;7.18;;
59786;SDS011;45672;51.612;5.536;2024-02-21T06:36:15;12.40;;;7.43;;
59786;SDS011;45672;51.612;5.536;2024-02-21T06:38:41;15.45;;;7.85;;
59786;SDS011;45672;51.612;5.536;2024-02-21T06:41:06;14.38;;;7.85;;
59786;SDS011;45672;51.612;5.536;2024-02-21T06:43:40;19.60;;;7.50;;
59786;SDS011;45672;51.612;5.536;2024-02-21T06:46:05;15.25;;;7.72;;
59786;SDS011;45672;51.612;5.536;2024-02-21T06:48:30;15.70;;;8.27;;
59786;SDS011;45672;51.612;5.536;2024-02-21T06:50:55;14.15;;;8.63;;
59786;SDS011;45672;51.612;5.536;2024-02-21T06:53:21;14.98;;;7.60;;
59786;SDS011;45672;51.612;5.536;2024-02-21T06:55:46;18.00;;;8.73;;
59786;SDS011;45672;51.612;5.536;2024-02-21T06:58:11;19.58;;;9.18;;
59786;SDS011;45672;51.612;5.536;2024-02-21T07:00:38;22.48;;;9.00;;
59786;SDS011;45672;51.612;5.536;2024-02-21T07:03:05;14.02;;;8.10;;
59786;SDS011;45672;51.612;5.536;2024-02-21T07:05:30;16.90;;;8.85;;
59786;SDS011;45672;51.612;5.536;2024-02-21T07:07:55;14.20;;;8.10;;
59786;SDS011;45672;51.612;5.536;2024-02-21T07:10:21;20.13;;;8.23;;
59786;SDS011;45672;51.612;5.536;2024-02-21T07:12:46;17.23;;;8.32;;
59786;SDS011;45672;51.612;5.536;2024-02-21T07:15:12;16.17;;;8.65;;
59786;SDS011;45672;51.612;5.536;2024-02-21T07:17:37;18.50;;;9.60;;
59786;SDS011;45672;51.612;5.536;2024-02-21T07:20:02;14.75;;;8.55;;
59786;SDS011;45672;51.612;5.536;2024-02-21T07:22:28;14.75;;;9.80;;
59786;SDS011;45672;51.612;5.536;2024-02-21T07:24:53;16.23;;;9.25;;
59786;SDS011;45672;51.612;5.536;2024-02-21T07:27:18;18.65;;;8.77;;
59786;SDS011;45672;51.612;5.536;2024-02-21T07:29:44;15.32;;;8.05;;
59786;SDS011;45672;51.612;5.536;2024-02-21T07:32:12;13.18;;;8.48;;
59786;SDS011;45672;51.612;5.536;2024-02-21T07:34:38;17.40;;;8.82;;
59786;SDS011;45672;51.612;5.536;2024-02-21T07:37:03;12.95;;;8.50;;
59786;SDS011;45672;51.612;5.536;2024-02-21T07:39:28;19.88;;;9.68;;
59786;SDS011;45672;51.612;5.536;2024-02-21T07:41:54;14.18;;;9.57;;
59786;SDS011;45672;51.612;5.536;2024-02-21T07:44:19;16.15;;;9.23;;
59786;SDS011;45672;51.612;5.536;2024-02-21T07:46:44;17.55;;;8.55;;
59786;SDS011;45672;51.612;5.536;2024-02-21T07:49:09;18.25;;;10.30;;
59786;SDS011;45672;51.612;5.536;2024-02-21T07:51:35;18.60;;;8.63;;
59786;SDS011;45672;51.612;5.536;2024-02-21T07:54:01;16.02;;;10.23;;
59786;SDS011;45672;51.612;5.536;2024-02-21T07:56:27;17.30;;;9.50;;
59786;SDS011;45672;51.612;5.536;2024-02-21T07:58:52;19.75;;;10.10;;
59786;SDS011;45672;51.612;5.536;2024-02-21T08:01:21;19.25;;;9.07;;
59786;SDS011;45672;51.612;5.536;2024-02-21T08:03:46;18.45;;;9.82;;
59786;SDS011;45672;51.612;5.536;2024-02-21T08:06:12;19.48;;;9.38;;
59786;SDS011;45672;51.612;5.536;2024-02-21T08:08:38;20.15;;;10.93;;
59786;SDS011;45672;51.612;5.536;2024-02-21T08:11:04;20.20;;;9.23;;
59786;SDS011;45672;51.612;5.536;2024-02-21T08:13:29;11.52;;;7.80;;
59786;SDS011;45672;51.612;5.536;2024-02-21T08:15:55;16.35;;;9.13;;
59786;SDS011;45672;51.612;5.536;2024-02-21T08:18:22;14.45;;;9.02;;
59786;SDS011;45672;51.612;5.536;2024-02-21T08:20:47;16.80;;;9.32;;
59786;SDS011;45672;51.612;5.536;2024-02-21T08:23:15;18.08;;;10.30;;
59786;SDS011;45672;51.612;5.536;2024-02-21T08:25:41;18.75;;;10.18;;
59786;SDS011;45672;51.612;5.536;2024-02-21T08:28:06;14.65;;;7.35;;
59786;SDS011;45672;51.612;5.536;2024-02-21T08:30:33;13.60;;;8.20;;
59786;SDS011;45672;51.612;5.536;2024-02-21T08:32:58;11.25;;;7.65;;
59786;SDS011;45672;51.612;5.536;2024-02-21T08:35:24;10.98;;;7.85;;
59786;SDS011;45672;51.612;5.536;2024-02-21T08:37:49;9.93;;;7.15;;
59786;SDS011;45672;51.612;5.536;2024-02-21T08:40:15;12.10;;;7.28;;
59786;SDS011;45672;51.612;5.536;2024-02-21T08:42:44;20.23;;;12.43;;
59786;SDS011;45672;51.612;5.536;2024-02-21T08:45:10;9.43;;;6.68;;
59786;SDS011;45672;51.612;5.536;2024-02-21T08:47:35;10.63;;;7.75;;
59786;SDS011;45672;51.612;5.536;2024-02-21T08:50:04;9.20;;;6.55;;
59786;SDS011;45672;51.612;5.536;2024-02-21T08:52:30;11.70;;;7.30;;
59786;SDS011;45672;51.612;5.536;2024-02-21T08:54:56;16.10;;;7.97;;
59786;SDS011;45672;51.612;5.536;2024-02-21T08:57:21;10.95;;;5.90;;
59786;SDS011;45672;51.612;5.536;2024-02-21T08:59:47;12.60;;;6.90;;
59786;SDS011;45672;51.612;5.536;2024-02-21T09:02:12;7.88;;;6.32;;
59786;SDS011;45672;51.612;5.536;2024-02-21T09:04:38;9.52;;;5.78;;
59786;SDS011;45672;51.612;5.536;2024-02-21T09:07:03;7.65;;;6.03;;
59786;SDS011;45672;51.612;5.536;2024-02-21T09:09:29;7.03;;;6.32;;
59786;SDS011;45672;51.612;5.536;2024-02-21T09:11:54;7.28;;;6.22;;
59786;SDS011;45672;51.612;5.536;2024-02-21T09:14:19;7.70;;;5.97;;
59786;SDS011;45672;51.612;5.536;2024-02-21T09:16:45;9.90;;;6.93;;
59786;SDS011;45672;51.612;5.536;2024-02-21T09:19:10;10.15;;;6.88;;
59786;SDS011;45672;51.612;5.536;2024-02-21T09:21:38;9.77;;;6.30;;
59786;SDS011;45672;51.612;5.536;2024-02-21T09:24:04;10.52;;;6.47;;
59786;SDS011;45672;51.612;5.536;2024-02-21T09:26:30;7.65;;;6.57;;
59786;SDS011;45672;51.612;5.536;2024-02-21T09:28:55;10.27;;;7.30;;
59786;SDS011;45672;51.612;5.536;2024-02-21T09:31:21;8.00;;;7.05;;
59786;SDS011;45672;51.612;5.536;2024-02-21T09:33:46;11.13;;;8.88;;
59786;SDS011;45672;51.612;5.536;2024-02-21T09:36:11;7.95;;;7.15;;
59786;SDS011;45672;51.612;5.536;2024-02-21T09:38:39;12.38;;;8.82;;
59786;SDS011;45672;51.612;5.536;2024-02-21T09:41:17;22.05;;;15.23;;
59786;SDS011;45672;51.612;5.536;2024-02-21T09:43:44;7.65;;;6.68;;
59786;SDS011;45672;51.612;5.536;2024-02-21T09:46:16;10.38;;;8.23;;
59786;SDS011;45672;51.612;5.536;2024-02-21T09:51:15;11.50;;;8.93;;
59786;SDS011;45672;51.612;5.536;2024-02-21T09:53:42;18.45;;;12.55;;
59786;SDS011;45672;51.612;5.536;2024-02-21T09:56:08;9.75;;;7.70;;
59786;SDS011;45672;51.612;5.536;2024-02-21T09:58:34;12.93;;;9.43;;
59786;SDS011;45672;51.612;5.536;2024-02-21T10:00:59;14.20;;;10.35;;
59786;SDS011;45672;51.612;5.536;2024-02-21T10:03:25;12.15;;;8.27;;
59786;SDS011;45672;51.612;5.536;2024-02-21T10:05:50;10.02;;;8.23;;
59786;SDS011;45672;51.612;5.536;2024-02-21T10:08:16;14.68;;;9.20;;
59786;SDS011;45672;51.612;5.536;2024-02-21T10:10:45;12.52;;;8.98;;
59786;SDS011;45672;51.612;5.536;2024-02-21T10:13:23;12.30;;;8.38;;
59786;SDS011;45672;51.612;5.536;2024-02-21T10:16:00;13.32;;;9.43;;
59786;SDS011;45672;51.612;5.536;2024-02-21T10:18:34;11.95;;;7.93;;
59786;SDS011;45672;51.612;5.536;2024-02-21T10:21:01;14.63;;;7.90;;
59786;SDS011;45672;51.612;5.536;2024-02-21T10:23:26;8.55;;;6.97;;
59786;SDS011;45672;51.612;5.536;2024-02-21T10:25:51;14.50;;;7.50;;
59786;SDS011;45672;51.612;5.536;2024-02-21T10:28:17;9.13;;;6.55;;
59786;SDS011;45672;51.612;5.536;2024-02-21T10:30:49;10.10;;;6.57;;
59786;SDS011;45672;51.612;5.536;2024-02-21T10:33:16;10.85;;;7.13;;
59786;SDS011;45672;51.612;5.536;2024-02-21T10:35:41;10.02;;;6.00;;
59786;SDS011;45672;51.612;5.536;2024-02-21T10:38:07;8.63;;;5.72;;
59786;SDS011;45672;51.612;5.536;2024-02-21T10:40:32;8.77;;;5.57;;
59786;SDS011;45672;51.612;5.536;2024-02-21T10:42:59;7.28;;;5.63;;
59786;SDS011;45672;51.612;5.536;2024-02-21T10:45:28;9.30;;;5.63;;
59786;SDS011;45672;51.612;5.536;2024-02-21T10:47:56;6.35;;;5.63;;
59786;SDS011;45672;51.612;5.536;2024-02-21T10:50:57;10.38;;;5.93;;
59786;SDS011;45672;51.612;5.536;2024-02-21T10:56:34;13.75;;;5.93;;
59786;SDS011;45672;51.612;5.536;2024-02-21T10:59:02;7.10;;;5.63;;
59786;SDS011;45672;51.612;5.536;2024-02-21T11:01:29;8.85;;;5.68;;
59786;SDS011;45672;51.612;5.536;2024-02-21T11:03:57;10.80;;;5.68;;
59786;SDS011;45672;51.612;5.536;2024-02-21T11:06:26;8.70;;;5.18;;
59786;SDS011;45672;51.612;5.536;2024-02-21T11:09:00;9.35;;;5.35;;
59786;SDS011;45672;51.612;5.536;2024-02-21T11:13:51;7.40;;;4.60;;
59786;SDS011;45672;51.612;5.536;2024-02-21T11:16:22;9.23;;;5.25;;
59786;SDS011;45672;51.612;5.536;2024-02-21T11:18:48;9.27;;;4.97;;
59786;SDS011;45672;51.612;5.536;2024-02-21T11:21:14;8.98;;;5.20;;
59786;SDS011;45672;51.612;5.536;2024-02-21T11:23:40;7.72;;;4.75;;
59786;SDS011;45672;51.612;5.536;2024-02-21T11:28:31;7.32;;;4.35;;
59786;SDS011;45672;51.612;5.536;2024-02-21T11:31:07;8.43;;;4.95;;
59786;SDS011;45672;51.612;5.536;2024-02-21T11:33:34;7.82;;;5.38;;
59786;SDS011;45672;51.612;5.536;2024-02-21T11:35:59;6.32;;;5.00;;
59786;SDS011;45672;51.612;5.536;2024-02-21T11:38:25;8.18;;;5.28;;
59786;SDS011;45672;51.612;5.536;2024-02-21T11:40:50;8.32;;;4.68;;
59786;SDS011;45672;51.612;5.536;2024-02-21T11:43:15;7.38;;;4.65;;
59786;SDS011;45672;51.612;5.536;2024-02-21T11:45:41;6.45;;;4.95;;
59786;SDS011;45672;51.612;5.536;2024-02-21T11:48:07;12.35;;;5.35;;
59786;SDS011;45672;51.612;5.536;2024-02-21T11:50:33;8.23;;;4.65;;
59786;SDS011;45672;51.612;5.536;2024-02-21T11:53:00;8.15;;;4.50;;
59786;SDS011;45672;51.612;5.536;2024-02-21T11:55:25;6.57;;;4.60;;
59786;SDS011;45672;51.612;5.536;2024-02-21T11:57:51;11.82;;;4.72;;
59786;SDS011;45672;51.612;5.536;2024-02-21T12:00:16;5.45;;;4.38;;
59786;SDS011;45672;51.612;5.536;2024-02-21T12:02:45;8.18;;;4.60;;
59786;SDS011;45672;51.612;5.536;2024-02-21T12:05:11;9.15;;;4.65;;
59786;SDS011;45672;51.612;5.536;2024-02-21T12:07:36;6.90;;;4.70;;
59786;SDS011;45672;51.612;5.536;2024-02-21T12:10:08;6.88;;;4.82;;
59786;SDS011;45672;51.612;5.536;2024-02-21T12:12:35;9.75;;;4.75;;
59786;SDS011;45672;51.612;5.536;2024-02-21T12:15:02;12.80;;;4.97;;
59786;SDS011;45672;51.612;5.536;2024-02-21T12:17:29;8.75;;;4.95;;
59786;SDS011;45672;51.612;5.536;2024-02-21T12:19:55;9.13;;;4.68;;
59786;SDS011;45672;51.612;5.536;2024-02-21T12:22:22;8.52;;;4.40;;
59786;SDS011;45672;51.612;5.536;2024-02-21T12:24:47;7.57;;;4.22;;
59786;SDS011;45672;51.612;5.536;2024-02-21T12:27:13;8.30;;;4.80;;
59786;SDS011;45672;51.612;5.536;2024-02-21T12:29:39;10.82;;;5.00;;
59786;SDS011;45672;51.612;5.536;2024-02-21T12:32:04;9.95;;;4.75;;
59786;SDS011;45672;51.612;5.536;2024-02-21T12:34:29;8.38;;;4.50;;
59786;SDS011;45672;51.612;5.536;2024-02-21T12:36:58;9.80;;;4.97;;
59786;SDS011;45672;51.612;5.536;2024-02-21T12:39:23;9.52;;;4.40;;
59786;SDS011;45672;51.612;5.536;2024-02-21T12:41:49;7.78;;;4.25;;
59786;SDS011;45672;51.612;5.536;2024-02-21T12:44:14;7.43;;;5.00;;
59786;SDS011;45672;51.612;5.536;2024-02-21T12:46:41;10.45;;;4.13;;
59786;SDS011;45672;51.612;5.536;2024-02-21T12:49:07;9.15;;;4.40;;
59786;SDS011;45672;51.612;5.536;2024-02-21T12:51:35;8.10;;;4.72;;
59786;SDS011;45672;51.612;5.536;2024-02-21T12:54:02;8.38;;;4.63;;
59786;SDS011;45672;51.612;5.536;2024-02-21T12:56:28;6.03;;;4.32;;
59786;SDS011;45672;51.612;5.536;2024-02-21T12:58:55;10.10;;;4.57;;
59786;SDS011;45672;51.612;5.536;2024-02-21T13:01:20;8.98;;;4.72;;
59786;SDS011;45672;51.612;5.536;2024-02-21T13:03:46;10.60;;;4.40;;
59786;SDS011;45672;51.612;5.536;2024-02-21T13:06:11;9.80;;;4.35;;
59786;SDS011;45672;51.612;5.536;2024-02-21T13:08:37;8.55;;;4.10;;
59786;SDS011;45672;51.612;5.536;2024-02-21T13:11:03;9.27;;;4.40;;
59786;SDS011;45672;51.612;5.536;2024-02-21T13:13:29;6.28;;;4.40;;
59786;SDS011;45672;51.612;5.536;2024-02-21T13:15:54;8.30;;;4.60;;
59786;SDS011;45672;51.612;5.536;2024-02-21T13:18:19;11.73;;;4.22;;
59786;SDS011;45672;51.612;5.536;2024-02-21T13:20:45;6.63;;;3.88;;
59786;SDS011;45672;51.612;5.536;2024-02-21T13:23:10;8.85;;;4.38;;
59786;SDS011;45672;51.612;5.536;2024-02-21T13:25:35;7.43;;;4.10;;
59786;SDS011;45672;51.612;5.536;2024-02-21T13:28:01;9.45;;;4.38;;
59786;SDS011;45672;51.612;5.536;2024-02-21T13:30:28;11.90;;;4.28;;
59786;SDS011;45672;51.612;5.536;2024-02-21T13:32:53;7.10;;;3.70;;
59786;SDS011;45672;51.612;5.536;2024-02-21T13:35:19;6.60;;;3.80;;
59786;SDS011;45672;51.612;5.536;2024-02-21T13:37:45;8.07;;;4.00;;
59786;SDS011;45672;51.612;5.536;2024-02-21T13:40:11;8.15;;;4.47;;
59786;SDS011;45672;51.612;5.536;2024-02-21T13:42:38;6.70;;;3.58;;
59786;SDS011;45672;51.612;5.536;2024-02-21T13:45:04;8.70;;;3.47;;
59786;SDS011;45672;51.612;5.536;2024-02-21T13:47:30;7.40;;;3.30;;
59786;SDS011;45672;51.612;5.536;2024-02-21T13:49:56;6.68;;;3.40;;
59786;SDS011;45672;51.612;5.536;2024-02-21T13:52:22;6.82;;;3.40;;
59786;SDS011;45672;51.612;5.536;2024-02-21T13:54:47;6.55;;;3.20;;
59786;SDS011;45672;51.612;5.536;2024-02-21T13:57:13;5.95;;;3.42;;
59786;SDS011;45672;51.612;5.536;2024-02-21T13:59:39;5.95;;;3.05;;
59786;SDS011;45672;51.612;5.536;2024-02-21T14:02:05;6.20;;;3.42;;
59786;SDS011;45672;51.612;5.536;2024-02-21T14:04:32;9.45;;;3.33;;
59786;SDS011;45672;51.612;5.536;2024-02-21T14:06:58;6.75;;;3.63;;
59786;SDS011;45672;51.612;5.536;2024-02-21T14:09:24;10.82;;;6.88;;
59786;SDS011;45672;51.612;5.536;2024-02-21T14:11:49;5.80;;;3.00;;
59786;SDS011;45672;51.612;5.536;2024-02-21T14:14:14;4.65;;;2.97;;
59786;SDS011;45672;51.612;5.536;2024-02-21T14:16:40;4.50;;;2.90;;
59786;SDS011;45672;51.612;5.536;2024-02-21T14:19:06;5.82;;;3.22;;
59786;SDS011;45672;51.612;5.536;2024-02-21T14:21:33;4.80;;;3.17;;
59786;SDS011;45672;51.612;5.536;2024-02-21T14:23:58;5.47;;;3.08;;
59786;SDS011;45672;51.612;5.536;2024-02-21T14:26:26;6.70;;;3.05;;
59786;SDS011;45672;51.612;5.536;2024-02-21T14:28:52;6.60;;;3.08;;
59786;SDS011;45672;51.612;5.536;2024-02-21T14:31:17;8.65;;;3.40;;
59786;SDS011;45672;51.612;5.536;2024-02-21T14:33:42;7.00;;;3.28;;
59786;SDS011;45672;51.612;5.536;2024-02-21T14:36:08;5.78;;;3.35;;
59786;SDS011;45672;51.612;5.536;2024-02-21T14:38:33;8.45;;;3.35;;
59786;SDS011;45672;51.612;5.536;2024-02-21T14:41:00;7.38;;;3.05;;